PWSweather.com
Personal Weather Stations
Station Observations
KWAYELM6
Clearwood, Yelm, Yelm, WA 98597

Clearwood, YelmYelm, WA 98597

Lat: 46.82, Lon: -122.48

Elevation: 560

Station Type: Davis Vantage Vue

Latest ConditionsUpdated 8:30:00 PM PST Saturday, Jan 20, 2018
Currently Today's Max Today's Min Today's Average
Temperature 46.0°F7.8°C 48.6°F9.2°C 37.9°F3.3°C 42.3°F5.7°C
Dew Point 37.8°F3.2°C 40.6°F4.8°C 36.3°F2.4°C 38.4°F3.6°C
Winds 1.0 mph SSW1.6 kmh SSW 1.0 mph S1.6 kmh S - 0.2 mph 0.3 kmh
Wind Gusts 5.0 mph8.0 kmh 6.0 mph9.7 kmh - -
Humidity 73% 97% 73% 86%
Pressure 29.97 in1014.9 mb 30.07 in1018.3 mb 29.97 in1014.9 mb -
Precipitation - 0.13 in3.3 mm - -
Hour Temp Dew Point Humidity Winds Wind Gusts Pressure Precip Precip Rate Daily Precip Total
08:30 PM 46.0°F7.8°C 37.8°F3.2°C 73% 1.0 mph SSW1.6 kmh SSW 5.0 mph8.0 kmh 29.97 in1014.9 mb 0.01 in0.3 mm 0.00 in0.0 mm 0.13 in3.3 mm
08:15 PM 46.0°F7.8°C 37.8°F3.2°C 73% 1.0 mph SE1.6 kmh SE 3.0 mph4.8 kmh 29.98 in1015.2 mb 0.01 in0.3 mm 0.00 in0.0 mm 0.13 in3.3 mm
08:00 PM 45.9°F7.7°C 38.1°F3.4°C 74% 1.0 mph SE1.6 kmh SE 4.0 mph6.4 kmh 29.98 in1015.2 mb 0.01 in0.3 mm 0.00 in0.0 mm 0.13 in3.3 mm
07:45 PM 45.9°F7.7°C 38.4°F3.6°C 75% 1.0 mph SSE1.6 kmh SSE 4.0 mph6.4 kmh 29.99 in1015.6 mb 0.01 in0.3 mm 0.04 in1.0 mm 0.13 in3.3 mm
07:30 PM 45.4°F7.4°C 38.3°F3.5°C 76% Calm Calm 4.0 mph6.4 kmh 30.00 in1015.9 mb 0.00 in0.0 mm 0.00 in0.0 mm 0.12 in3.0 mm
07:15 PM 45.1°F7.3°C 38.6°F3.7°C 78% Calm Calm 1.0 mph1.6 kmh 30.01 in1016.3 mb 0.00 in0.0 mm 0.00 in0.0 mm 0.12 in3.0 mm
07:00 PM 45.0°F7.2°C 38.9°F3.8°C 79% Calm Calm 2.0 mph3.2 kmh 30.01 in1016.3 mb 0.01 in0.3 mm 0.00 in0.0 mm 0.12 in3.0 mm
06:45 PM 45.1°F7.3°C 39.0°F3.9°C 79% 1.0 mph SW1.6 kmh SW 3.0 mph4.8 kmh 30.02 in1016.6 mb 0.01 in0.3 mm 0.00 in0.0 mm 0.12 in3.0 mm
06:30 PM 44.9°F7.2°C 38.8°F3.8°C 79% Calm Calm 2.0 mph3.2 kmh 30.02 in1016.6 mb 0.01 in0.3 mm 0.00 in0.0 mm 0.12 in3.0 mm
06:15 PM 45.5°F7.5°C 39.4°F4.1°C 79% Calm Calm 2.0 mph3.2 kmh 30.02 in1016.6 mb 0.01 in0.3 mm 0.04 in1.0 mm 0.12 in3.0 mm
06:00 PM 45.5°F7.5°C 39.0°F3.9°C 78% Calm Calm 5.0 mph8.0 kmh 30.02 in1016.6 mb 0.00 in0.0 mm 0.00 in0.0 mm 0.11 in2.8 mm
05:45 PM 45.4°F7.4°C 38.9°F3.8°C 78% Calm Calm 1.0 mph1.6 kmh 30.02 in1016.6 mb 0.00 in0.0 mm 0.00 in0.0 mm 0.11 in2.8 mm
05:30 PM 44.9°F7.2°C 39.1°F3.9°C 80% Calm Calm 2.0 mph3.2 kmh 30.02 in1016.6 mb 0.01 in0.3 mm 0.00 in0.0 mm 0.11 in2.8 mm
05:15 PM 44.7°F7.1°C 38.9°F3.8°C 80% Calm Calm 2.0 mph3.2 kmh 30.03 in1016.9 mb 0.01 in0.3 mm 0.00 in0.0 mm 0.11 in2.8 mm
05:00 PM 44.9°F7.2°C 39.4°F4.1°C 81% Calm Calm 3.0 mph4.8 kmh 30.04 in1017.3 mb 0.01 in0.3 mm 0.00 in0.0 mm 0.11 in2.8 mm
04:45 PM 45.4°F7.4°C 39.9°F4.4°C 81% Calm Calm 4.0 mph6.4 kmh 30.04 in1017.3 mb 0.01 in0.3 mm 0.04 in1.0 mm 0.11 in2.8 mm
04:30 PM 46.3°F7.9°C 39.1°F3.9°C 76% 1.0 mph E1.6 kmh E 4.0 mph6.4 kmh 30.04 in1017.3 mb 0.00 in0.0 mm 0.00 in0.0 mm 0.10 in2.5 mm
04:15 PM 46.1°F7.8°C 39.6°F4.2°C 78% Calm Calm 1.0 mph1.6 kmh 30.04 in1017.3 mb 0.00 in0.0 mm 0.00 in0.0 mm 0.10 in2.5 mm
04:00 PM 46.5°F8.1°C 39.7°F4.3°C 77% Calm Calm 3.0 mph4.8 kmh 30.04 in1017.3 mb 0.01 in0.3 mm 0.00 in0.0 mm 0.10 in2.5 mm
03:45 PM 47.0°F8.3°C 39.8°F4.3°C 76% 1.0 mph SE1.6 kmh SE 3.0 mph4.8 kmh 30.04 in1017.3 mb 0.01 in0.3 mm 0.00 in0.0 mm 0.10 in2.5 mm
03:30 PM 47.1°F8.4°C 39.9°F4.4°C 76% Calm Calm 2.0 mph3.2 kmh 30.04 in1017.3 mb 0.01 in0.3 mm 0.00 in0.0 mm 0.10 in2.5 mm
03:15 PM 47.2°F8.4°C 39.3°F4.1°C 74% 1.0 mph SE1.6 kmh SE 4.0 mph6.4 kmh 30.04 in1017.3 mb 0.01 in0.3 mm 0.04 in1.0 mm 0.10 in2.5 mm
03:00 PM 48.1°F8.9°C 39.9°F4.4°C 73% Calm Calm 2.0 mph3.2 kmh 30.03 in1016.9 mb 0.00 in0.0 mm 0.00 in0.0 mm 0.09 in2.3 mm
02:45 PM 48.4°F9.1°C 40.1°F4.5°C 73% 1.0 mph SSE1.6 kmh SSE 6.0 mph9.7 kmh 30.04 in1017.3 mb 0.00 in0.0 mm 0.00 in0.0 mm 0.09 in2.3 mm
02:30 PM 48.6°F9.2°C 40.3°F4.6°C 73% 1.0 mph SSE1.6 kmh SSE 2.0 mph3.2 kmh 30.04 in1017.3 mb 0.01 in0.3 mm 0.00 in0.0 mm 0.09 in2.3 mm
02:15 PM 48.2°F9.0°C 40.6°F4.8°C 75% Calm Calm 3.0 mph4.8 kmh 30.03 in1016.9 mb 0.01 in0.3 mm 0.00 in0.0 mm 0.09 in2.3 mm
02:00 PM 48.3°F9.1°C 40.4°F4.7°C 74% Calm Calm 2.0 mph3.2 kmh 30.04 in1017.3 mb 0.01 in0.3 mm 0.00 in0.0 mm 0.09 in2.3 mm
01:45 PM 47.9°F8.8°C 40.0°F4.4°C 74% Calm Calm 3.0 mph4.8 kmh 30.04 in1017.3 mb 0.01 in0.3 mm 0.04 in1.0 mm 0.09 in2.3 mm
01:30 PM 47.4°F8.6°C 40.6°F4.8°C 77% Calm Calm 3.0 mph4.8 kmh 30.04 in1017.3 mb 0.00 in0.0 mm 0.00 in0.0 mm 0.08 in2.0 mm
01:15 PM 47.0°F8.3°C 40.2°F4.6°C 77% 1.0 mph S1.6 kmh S 4.0 mph6.4 kmh 30.04 in1017.3 mb 0.00 in0.0 mm 0.00 in0.0 mm 0.08 in2.0 mm
01:00 PM 47.0°F8.3°C 40.2°F4.6°C 77% Calm Calm 4.0 mph6.4 kmh 30.05 in1017.6 mb 0.01 in0.3 mm 0.00 in0.0 mm 0.08 in2.0 mm
12:45 PM 46.3°F7.9°C 40.1°F4.5°C 79% 1.0 mph ESE1.6 kmh ESE 5.0 mph8.0 kmh 30.04 in1017.3 mb 0.01 in0.3 mm 0.00 in0.0 mm 0.08 in2.0 mm
12:30 PM 45.3°F7.4°C 39.8°F4.3°C 81% Calm Calm 3.0 mph4.8 kmh 30.05 in1017.6 mb 0.01 in0.3 mm 0.00 in0.0 mm 0.08 in2.0 mm
12:15 PM 44.5°F6.9°C 39.7°F4.3°C 83% Calm Calm 2.0 mph3.2 kmh 30.05 in1017.6 mb 0.01 in0.3 mm 0.04 in1.0 mm 0.08 in2.0 mm
12:00 PM 44.0°F6.7°C 38.5°F3.6°C 81% Calm Calm 3.0 mph4.8 kmh 30.06 in1017.9 mb 0.00 in0.0 mm 0.00 in0.0 mm 0.07 in1.8 mm
11:45 AM 43.1°F6.2°C 38.9°F3.8°C 85% Calm Calm 3.0 mph4.8 kmh 30.06 in1017.9 mb 0.00 in0.0 mm 0.00 in0.0 mm 0.07 in1.8 mm
11:30 AM 42.8°F6.0°C 38.9°F3.8°C 86% 1.0 mph S1.6 kmh S 3.0 mph4.8 kmh 30.07 in1018.3 mb 0.01 in0.3 mm 0.00 in0.0 mm 0.07 in1.8 mm
11:15 AM 42.1°F5.6°C 39.1°F3.9°C 89% Calm Calm 1.0 mph1.6 kmh 30.07 in1018.3 mb 0.01 in0.3 mm 0.00 in0.0 mm 0.07 in1.8 mm
11:00 AM 41.9°F5.5°C 38.9°F3.8°C 89% Calm Calm 2.0 mph3.2 kmh 30.07 in1018.3 mb 0.01 in0.3 mm 0.00 in0.0 mm 0.07 in1.8 mm
10:45 AM 41.8°F5.4°C 38.8°F3.8°C 89% Calm Calm 1.0 mph1.6 kmh 30.07 in1018.3 mb 0.01 in0.3 mm 0.04 in1.0 mm 0.07 in1.8 mm
10:30 AM 41.5°F5.3°C 38.8°F3.8°C 90% Calm Calm 2.0 mph3.2 kmh 30.07 in1018.3 mb 0.00 in0.0 mm 0.00 in0.0 mm 0.06 in1.5 mm
10:15 AM 41.4°F5.2°C 38.4°F3.6°C 89% Calm Calm 1.0 mph1.6 kmh 30.07 in1018.3 mb 0.00 in0.0 mm 0.00 in0.0 mm 0.06 in1.5 mm
10:00 AM 41.4°F5.2°C 38.1°F3.4°C 88% Calm Calm 1.0 mph1.6 kmh 30.07 in1018.3 mb 0.01 in0.3 mm 0.00 in0.0 mm 0.06 in1.5 mm
09:45 AM 41.1°F5.1°C 38.1°F3.4°C 89% Calm Calm 2.0 mph3.2 kmh 30.07 in1018.3 mb 0.01 in0.3 mm 0.00 in0.0 mm 0.06 in1.5 mm
09:30 AM 40.7°F4.8°C 38.3°F3.5°C 91% Calm Calm 3.0 mph4.8 kmh 30.06 in1017.9 mb 0.01 in0.3 mm 0.00 in0.0 mm 0.06 in1.5 mm
09:15 AM 40.2°F4.6°C 38.1°F3.4°C 92% Calm Calm 1.0 mph1.6 kmh 30.06 in1017.9 mb 0.01 in0.3 mm 0.04 in1.0 mm 0.06 in1.5 mm
09:00 AM 40.0°F4.4°C 37.9°F3.3°C 92% Calm Calm -- 30.06 in1017.9 mb 0.00 in0.0 mm 0.00 in0.0 mm 0.05 in1.3 mm
08:45 AM 40.0°F4.4°C 37.6°F3.1°C 91% Calm Calm 1.0 mph1.6 kmh 30.06 in1017.9 mb 0.00 in0.0 mm 0.00 in0.0 mm 0.05 in1.3 mm
08:30 AM 39.6°F4.2°C 37.7°F3.2°C 93% Calm Calm 1.0 mph1.6 kmh 30.05 in1017.6 mb 0.00 in0.0 mm 0.00 in0.0 mm 0.05 in1.3 mm
08:15 AM 38.7°F3.7°C 37.1°F2.8°C 94% Calm Calm 1.0 mph1.6 kmh 30.05 in1017.6 mb 0.01 in0.3 mm 0.00 in0.0 mm 0.05 in1.3 mm
08:00 AM 38.4°F3.6°C 36.8°F2.7°C 94% Calm Calm 1.0 mph1.6 kmh 30.05 in1017.6 mb 0.01 in0.3 mm 0.00 in0.0 mm 0.05 in1.3 mm
07:45 AM 38.3°F3.5°C 36.7°F2.6°C 94% Calm Calm 1.0 mph1.6 kmh 30.04 in1017.3 mb 0.01 in0.3 mm 0.00 in0.0 mm 0.05 in1.3 mm
07:30 AM 38.1°F3.4°C 36.8°F2.7°C 95% Calm Calm 1.0 mph1.6 kmh 30.04 in1017.3 mb 0.01 in0.3 mm 0.04 in1.0 mm 0.05 in1.3 mm
07:15 AM 38.2°F3.4°C 37.2°F2.9°C 96% Calm Calm 1.0 mph1.6 kmh 30.04 in1017.3 mb 0.00 in0.0 mm 0.00 in0.0 mm 0.04 in1.0 mm
07:00 AM 38.1°F3.4°C 36.8°F2.7°C 95% Calm Calm 1.0 mph1.6 kmh 30.04 in1017.3 mb 0.00 in0.0 mm 0.00 in0.0 mm 0.04 in1.0 mm
06:45 AM 38.3°F3.5°C 37.0°F2.8°C 95% Calm Calm 1.0 mph1.6 kmh 30.04 in1017.3 mb 0.01 in0.3 mm 0.00 in0.0 mm 0.04 in1.0 mm
06:30 AM 38.5°F3.6°C 37.2°F2.9°C 95% Calm Calm 1.0 mph1.6 kmh 30.05 in1017.6 mb 0.01 in0.3 mm 0.00 in0.0 mm 0.04 in1.0 mm
06:15 AM 38.8°F3.8°C 37.2°F2.9°C 94% Calm Calm -- 30.05 in1017.6 mb 0.01 in0.3 mm 0.00 in0.0 mm 0.04 in1.0 mm
06:00 AM 39.0°F3.9°C 37.4°F3.0°C 94% Calm Calm -- 30.04 in1017.3 mb 0.01 in0.3 mm 0.01 in0.3 mm 0.04 in1.0 mm
05:45 AM 39.0°F3.9°C 37.1°F2.8°C 93% Calm Calm 1.0 mph1.6 kmh 30.04 in1017.3 mb 0.00 in0.0 mm 0.00 in0.0 mm 0.03 in0.8 mm
05:30 AM 38.6°F3.7°C 36.8°F2.7°C 93% Calm Calm -- 30.03 in1016.9 mb 0.00 in0.0 mm 0.00 in0.0 mm 0.03 in0.8 mm
05:15 AM 38.3°F3.5°C 36.7°F2.6°C 94% Calm Calm 1.0 mph1.6 kmh 30.03 in1016.9 mb 0.00 in0.0 mm 0.00 in0.0 mm 0.03 in0.8 mm
05:00 AM 38.4°F3.6°C 36.6°F2.6°C 93% Calm Calm 1.0 mph1.6 kmh 30.03 in1016.9 mb 0.01 in0.3 mm 0.00 in0.0 mm 0.03 in0.8 mm
04:45 AM 38.2°F3.4°C 36.6°F2.6°C 94% Calm Calm 1.0 mph1.6 kmh 30.02 in1016.6 mb 0.01 in0.3 mm 0.00 in0.0 mm 0.03 in0.8 mm
04:30 AM 37.9°F3.3°C 36.3°F2.4°C 94% Calm Calm 1.0 mph1.6 kmh 30.02 in1016.6 mb 0.01 in0.3 mm 0.00 in0.0 mm 0.03 in0.8 mm
04:15 AM 38.0°F3.3°C 36.4°F2.4°C 94% Calm Calm 1.0 mph1.6 kmh 30.02 in1016.6 mb 0.01 in0.3 mm 0.04 in1.0 mm 0.03 in0.8 mm
04:00 AM 38.5°F3.6°C 36.4°F2.4°C 92% Calm Calm 2.0 mph3.2 kmh 30.01 in1016.3 mb 0.00 in0.0 mm 0.00 in0.0 mm 0.02 in0.5 mm
03:45 AM 38.1°F3.4°C 36.8°F2.7°C 95% Calm Calm 2.0 mph3.2 kmh 30.01 in1016.3 mb 0.00 in0.0 mm 0.00 in0.0 mm 0.02 in0.5 mm
03:30 AM 38.1°F3.4°C 37.1°F2.8°C 96% Calm Calm 3.0 mph4.8 kmh 30.01 in1016.3 mb 0.01 in0.3 mm 0.00 in0.0 mm 0.02 in0.5 mm
03:15 AM 38.4°F3.6°C 37.4°F3.0°C 96% Calm Calm 2.0 mph3.2 kmh 30.00 in1015.9 mb 0.01 in0.3 mm 0.00 in0.0 mm 0.02 in0.5 mm
03:00 AM 38.5°F3.6°C 37.5°F3.1°C 96% Calm Calm 2.0 mph3.2 kmh 30.01 in1016.3 mb 0.01 in0.3 mm 0.00 in0.0 mm 0.02 in0.5 mm
02:45 AM 38.9°F3.8°C 38.1°F3.4°C 97% Calm Calm 1.0 mph1.6 kmh 30.00 in1015.9 mb 0.01 in0.3 mm 0.04 in1.0 mm 0.02 in0.5 mm
02:30 AM 38.9°F3.8°C 37.9°F3.3°C 96% Calm Calm 2.0 mph3.2 kmh 30.00 in1015.9 mb 0.00 in0.0 mm 0.00 in0.0 mm 0.01 in0.3 mm
02:15 AM 39.0°F3.9°C 38.0°F3.3°C 96% Calm Calm -- 29.99 in1015.6 mb 0.00 in0.0 mm 0.00 in0.0 mm 0.01 in0.3 mm
02:00 AM 39.2°F4.0°C 38.2°F3.4°C 96% Calm Calm -- 29.99 in1015.6 mb 0.01 in0.3 mm 0.00 in0.0 mm 0.01 in0.3 mm
01:45 AM 39.1°F3.9°C 38.1°F3.4°C 96% Calm Calm 1.0 mph1.6 kmh 29.99 in1015.6 mb 0.01 in0.3 mm 0.00 in0.0 mm 0.01 in0.3 mm
01:30 AM 38.8°F3.8°C 37.8°F3.2°C 96% Calm Calm 1.0 mph1.6 kmh 29.98 in1015.2 mb 0.01 in0.3 mm 0.00 in0.0 mm 0.01 in0.3 mm
01:15 AM 38.8°F3.8°C 37.8°F3.2°C 96% Calm Calm 1.0 mph1.6 kmh 29.98 in1015.2 mb 0.01 in0.3 mm 0.04 in1.0 mm 0.01 in0.3 mm
01:00 AM 38.8°F3.8°C 37.8°F3.2°C 96% Calm Calm 1.0 mph1.6 kmh 29.98 in1015.2 mb 0.00 in0.0 mm 0.00 in0.0 mm 0.01 in0.3 mm
12:45 AM 38.9°F3.8°C 37.6°F3.1°C 95% Calm Calm -- 29.98 in1015.2 mb 0.01 in0.3 mm 0.00 in0.0 mm 0.01 in0.3 mm
12:30 AM 39.1°F3.9°C 37.8°F3.2°C 95% Calm Calm 1.0 mph1.6 kmh 29.99 in1015.6 mb 0.01 in0.3 mm 0.00 in0.0 mm 0.01 in0.3 mm
12:15 AM 39.5°F4.2°C 38.2°F3.4°C 95% Calm Calm -- 29.99 in1015.6 mb 0.01 in0.3 mm 0.00 in0.0 mm 0.01 in0.3 mm
12:00 AM 39.9°F4.4°C 38.3°F3.5°C 94% Calm Calm 1.0 mph1.6 kmh 29.99 in1015.6 mb 0.01 in0.3 mm 0.00 in0.0 mm 0.01 in0.3 mm